Latest Weather Observations for Inner Beacon

IDQ60801

Issued at 1:32 am EST Sunday 21 December 2014 (issued every 30 minutes, with the page automatically refreshed every 10 minutes)

About weather observations | Map of weather stations | Latest weather observations for QLD | Other Formats
Station Details ID: 040926 Name: INNER RECIPROCAL MARKER Lat: -27.26 Lon: 153.24 Height: 20.0 m
Data from the previous 72 hours. | See also: Recent months for locations in Queensland
Date/Time
EST
Temp
°C
App
Temp
°C
Dew
Point
Rel
Hum
%
Delta-T
°C
Wind Press
QNH
hPa
Press
MSL
hPa
Rain
since 9 am
mm
Dir
 
Spd
km/h
Gust
km/h
Spd
kts
Gust
kts
21/01:30am - - - - - E 22 28 12 15 - - -
21/01:00am - - - - - E 20 26 11 14 - - -
21/12:30am - - - - - E 20 24 11 13 - - -
21/12:00am - - - - - E 22 28 12 15 - - -
 
Date/Time
EST
Temp
°C
App
Temp
°C
Dew
Point
Rel
Hum
%
Delta-T
°C
Wind Press
QNH
hPa
Press
MSL
hPa
Rain
since 9 am
mm
Dir
 
Spd
km/h
Gust
km/h
Spd
kts
Gust
kts
20/11:30pm - - - - - E 22 28 12 15 - - -
20/11:00pm - - - - - E 24 30 13 16 - - -
20/10:30pm - - - - - E 22 30 12 16 - - -
20/10:00pm - - - - - E 22 32 12 17 - - -
20/09:30pm - - - - - E 26 32 14 17 - - -
20/09:00pm - - - - - E 24 28 13 15 - - -
20/08:30pm - - - - - E 26 30 14 16 - - -
20/08:00pm - - - - - E 28 32 15 17 - - -
20/07:30pm - - - - - E 26 30 14 16 - - -
20/07:00pm - - - - - E 28 35 15 19 - - -
20/06:30pm - - - - - E 26 32 14 17 - - -
20/06:00pm - - - - - E 28 32 15 17 - - -
20/05:30pm - - - - - E 26 32 14 17 - - -
20/05:00pm - - - - - E 28 35 15 19 - - -
20/04:30pm - - - - - E 28 35 15 19 - - -
20/04:00pm - - - - - E 26 35 14 19 - - -
20/03:30pm - - - - - E 30 37 16 20 - - -
20/03:00pm - - - - - ESE 24 32 13 17 - - -
20/02:30pm - - - - - ESE 30 35 16 19 - - -
20/02:00pm - - - - - ESE 28 33 15 18 - - -
20/01:30pm - - - - - ESE 24 30 13 16 - - -
20/01:00pm - - - - - ESE 24 30 13 16 - - -
20/12:30pm - - - - - ESE 24 30 13 16 - - -
20/12:00pm - - - - - ESE 26 30 14 16 - - -
20/11:30am - - - - - ESE 26 30 14 16 - - -
20/11:00am - - - - - ESE 24 30 13 16 - - -
20/10:30am - - - - - ESE 22 28 12 15 - - -
20/10:00am - - - - - ESE 24 28 13 15 - - -
20/09:30am - - - - - ESE 24 30 13 16 - - -
20/09:00am - - - - - SE 26 30 14 16 - - -
20/08:30am - - - - - SE 26 30 14 16 - - -
20/08:00am - - - - - SSE 24 28 13 15 - - -
20/07:30am - - - - - SE 24 28 13 15 - - -
20/07:00am - - - - - SE 28 32 15 17 - - -
20/06:30am - - - - - SE 30 35 16 19 - - -
20/06:00am - - - - - SSE 32 35 17 19 - - -
20/05:30am - - - - - SSE 32 37 17 20 - - -
20/05:00am - - - - - SE 30 35 16 19 - - -
20/04:30am - - - - - SSE 33 37 18 20 - - -
20/04:00am - - - - - SE 32 39 17 21 - - -
20/03:30am - - - - - SSE 30 35 16 19 - - -
20/03:00am - - - - - SSE 32 39 17 21 - - -
20/02:30am - - - - - SE 35 41 19 22 - - -
20/02:00am - - - - - SSE 35 43 19 23 - - -
20/01:30am - - - - - SSE 35 43 19 23 - - -
20/01:00am - - - - - SSE 33 41 18 22 - - -
20/12:30am - - - - - SSE 35 41 19 22 - - -
20/12:00am - - - - - SE 33 41 18 22 - - -
 
Date/Time
EST
Temp
°C
App
Temp
°C
Dew
Point
Rel
Hum
%
Delta-T
°C
Wind Press
QNH
hPa
Press
MSL
hPa
Rain
since 9 am
mm
Dir
 
Spd
km/h
Gust
km/h
Spd
kts
Gust
kts
19/11:30pm - - - - - SE 32 37 17 20 - - -
19/11:00pm - - - - - SE 30 37 16 20 - - -
19/10:30pm - - - - - SE 22 26 12 14 - - -
19/10:00pm - - - - - SE 24 30 13 16 - - -
19/09:30pm - - - - - ESE 13 15 7 8 - - -
19/09:00pm - - - - - ESE 9 11 5 6 - - -
19/08:30pm - - - - - ESE 9 13 5 7 - - -
19/08:00pm - - - - - E 15 19 8 10 - - -
19/07:30pm - - - - - NNE 24 28 13 15 - - -
19/07:00pm - - - - - NNE 26 30 14 16 - - -
19/06:30pm - - - - - N 28 32 15 17 - - -
19/06:00pm - - - - - N 30 33 16 18 - - -
19/05:30pm - - - - - NNE 32 37 17 20 - - -
19/05:00pm - - - - - N 32 35 17 19 - - -
19/04:30pm - - - - - N 32 35 17 19 - - -
19/04:00pm - - - - - N 30 33 16 18 - - -
19/03:30pm - - - - - N 28 32 15 17 - - -
19/03:00pm - - - - - N 26 28 14 15 - - -
19/02:30pm - - - - - NNE 24 26 13 14 - - -
19/02:00pm - - - - - N 24 28 13 15 - - -
19/01:30pm - - - - - N 24 26 13 14 - - -
19/01:00pm - - - - - NNE 24 26 13 14 - - -
19/12:30pm - - - - - NNE 22 24 12 13 - - -
19/12:00pm - - - - - N 19 20 10 11 - - -
19/11:30am - - - - - N 15 19 8 10 - - -
19/11:00am - - - - - N 15 19 8 10 - - -
19/10:30am - - - - - N 11 13 6 7 - - -
19/08:30am - - - - - NW 9 13 5 7 - - -
19/08:00am - - - - - WNW 9 13 5 7 - - -
19/07:30am - - - - - NW 11 13 6 7 - - -
19/07:00am - - - - - W 13 15 7 8 - - -
19/06:30am - - - - - W 9 13 5 7 - - -
19/06:00am - - - - - W 9 11 5 6 - - -
19/05:30am - - - - - NW 11 13 6 7 - - -
19/05:00am - - - - - WSW 11 15 6 8 - - -
19/04:30am - - - - - WSW 11 15 6 8 - - -
19/04:00am - - - - - WSW 15 19 8 10 - - -
19/03:30am - - - - - WSW 19 22 10 12 - - -
19/03:00am - - - - - WSW 15 19 8 10 - - -
19/02:30am - - - - - WSW 20 26 11 14 - - -
19/02:00am - - - - - W 15 20 8 11 - - -
19/01:30am - - - - - WNW 22 28 12 15 - - -
19/01:00am - - - - - W 24 28 13 15 - - -
19/12:30am - - - - - NW 26 32 14 17 - - -
19/12:00am - - - - - NNW 30 33 16 18 - - -
 
Date/Time
EST
Temp
°C
App
Temp
°C
Dew
Point
Rel
Hum
%
Delta-T
°C
Wind Press
QNH
hPa
Press
MSL
hPa
Rain
since 9 am
mm
Dir
 
Spd
km/h
Gust
km/h
Spd
kts
Gust
kts
18/11:30pm - - - - - NNW 24 28 13 15 - - -
18/11:00pm - - - - - NNW 7 9 4 5 - - -
18/10:30pm - - - - - CALM 0 0 0 0 - - -
18/10:00pm - - - - - SE 4 6 2 3 - - -
18/09:30pm - - - - - NE 19 24 10 13 - - -
18/09:00pm - - - - - NE 7 11 4 6 - - -
18/08:30pm - - - - - NE 6 7 3 4 - - -
18/08:00pm - - - - - SSE 7 11 4 6 - - -
18/07:30pm - - - - - SSW 20 24 11 13 - - -
18/07:00pm - - - - - SW 28 35 15 19 - - -
18/06:30pm - - - - - WSW 43 57 23 31 - - -
18/06:14pm - - - - - WNW 32 54 17 29 - - -
18/06:08pm - - - - - N 37 44 20 24 - - -
18/06:04pm - - - - - NE 39 44 21 24 - - -
18/06:00pm - - - - - NE 39 48 21 26 - - -
18/05:30pm - - - - - NE 41 48 22 26 - - -
18/05:00pm - - - - - NE 46 54 25 29 - - -
18/04:30pm - - - - - NE 41 50 22 27 - - -
18/04:00pm - - - - - NE 37 43 20 23 - - -
18/03:30pm - - - - - NE 37 43 20 23 - - -
18/03:00pm - - - - - NE 35 41 19 22 - - -
18/02:30pm - - - - - NE 33 39 18 21 - - -
18/02:00pm - - - - - NE 35 41 19 22 - - -
18/01:30pm - - - - - NE 33 37 18 20 - - -
18/01:00pm - - - - - NE 26 32 14 17 - - -
18/12:30pm - - - - - NE 26 32 14 17 - - -
18/12:00pm - - - - - NE 24 28 13 15 - - -
18/11:30am - - - - - NE 19 20 10 11 - - -
18/11:00am - - - - - NE 13 19 7 10 - - -
18/10:30am - - - - - NE 11 15 6 8 - - -
18/10:00am - - - - - NNW 13 15 7 8 - - -
18/09:30am - - - - - N 11 15 6 8 - - -
18/09:00am - - - - - NE 4 6 2 3 - - -
18/08:30am - - - - - NW 4 6 2 3 - - -
18/08:00am - - - - - SE 2 2 1 1 - - -
18/07:30am - - - - - SE 6 6 3 3 - - -
18/07:00am - - - - - ESE 6 6 3 3 - - -
18/06:30am - - - - - ESE 9 13 5 7 - - -
18/06:00am - - - - - E 11 15 6 8 - - -
18/05:30am - - - - - ESE 11 15 6 8 - - -
18/05:00am - - - - - E 13 19 7 10 - - -
18/04:30am - - - - - ESE 17 22 9 12 - - -
18/04:00am - - - - - SSW 15 20 8 11 - - -
18/03:30am - - - - - SW 30 37 16 20 - - -
18/03:00am - - - - - SSW 32 37 17 20 - - -
18/02:30am - - - - - SSW 22 30 12 16 - - -
18/02:00am - - - - - SW 24 28 13 15 - - -

Other Formats:

Comma delimited format used in spreadsheet applications
http://www.bom.gov.au/fwo/IDQ60801/IDQ60801.94590.axf

JavaScript Object Notation format (JSON) in row-major order
http://www.bom.gov.au/fwo/IDQ60801/IDQ60801.94590.json